Langley, South Carolina
Current Conditions -  °F | °C
As of 5:53 PM on Monday 24 Nov 2014 (Local Time) from KDNL Reporting Station
Light Rain Light Rain  
Wind Chill: 69°   Ceiling: 9000
Heat Index: 69°   Visibility: 10mi
Dew Point: 64°   Wind: 5mph
Humidity: 84%   Direction: 210°SSW
Pressure: 29.86"   Gusts: NA
Location:  33.52°N, 81.84°W
Report Text: KDNL 242253Z AUTO 21004KT 10SM -RA FEW010 SCT050 BKN090 21/18 A2986 RMK AO2 RAB33 PRESFR SLP107 P0000 T02060178
Loading
Personal Weather Stations






























Interactive Weather Map New forecast layout! Learn more

10-Day Weather Forecast

Advertisements
Track Severe Weather on mobile